createdAt,value
2023-04-20T05:24:23.811Z,1.21
2023-04-20T05:25:02.171Z,1.20
2023-04-20T05:26:02.149Z,1.20
2023-04-20T05:27:02.127Z,1.20
2023-04-20T05:28:02.120Z,1.18
2023-04-20T05:29:02.111Z,1.21
2023-04-20T05:30:13.186Z,1.28
2023-04-20T05:31:02.114Z,1.34
2023-04-20T05:32:02.168Z,1.32
2023-04-20T05:33:02.112Z,1.32
2023-04-20T05:34:02.088Z,1.31
2023-04-20T05:35:02.032Z,1.34
2023-04-20T05:36:02.023Z,1.32
2023-04-20T05:37:02.046Z,1.35
2023-04-20T05:38:02.020Z,1.36
2023-04-20T05:39:02.006Z,1.38
2023-04-20T05:40:02.000Z,1.38
2023-04-20T05:41:01.991Z,1.38
2023-04-20T05:42:02.002Z,1.39
2023-04-20T05:43:01.956Z,1.39
2023-04-20T05:44:01.947Z,1.39
2023-04-20T05:45:01.952Z,1.39
2023-04-20T05:46:01.960Z,1.42
2023-04-20T05:47:01.924Z,1.44
2023-04-20T05:48:02.030Z,1.46
2023-04-20T05:49:01.910Z,1.49
2023-04-20T05:50:01.898Z,1.50
2023-04-20T05:51:01.887Z,1.50
2023-04-20T05:52:01.874Z,1.54
2023-04-20T05:53:01.856Z,1.53
2023-04-20T05:54:01.841Z,1.53
2023-04-20T05:55:01.831Z,1.52
2023-04-20T05:56:01.808Z,1.54
2023-04-20T05:57:01.821Z,1.56
2023-04-20T05:58:01.786Z,1.60
2023-04-20T05:59:01.785Z,1.63
2023-04-20T06:00:01.768Z,1.65
2023-04-20T06:01:01.760Z,1.68
2023-04-20T06:02:01.912Z,1.74
2023-04-20T06:03:02.101Z,1.77
2023-04-20T06:04:01.875Z,1.79
2023-04-20T06:05:01.781Z,1.82
2023-04-20T06:06:01.727Z,1.85
2023-04-20T06:07:01.702Z,1.86
2023-04-20T06:08:01.698Z,1.90
2023-04-20T06:09:01.673Z,1.89
2023-04-20T06:10:01.703Z,1.90
2023-04-20T06:11:01.661Z,1.90
2023-04-20T06:12:01.676Z,1.93
2023-04-20T06:13:01.645Z,1.95
2023-04-20T06:14:01.622Z,1.95
2023-04-20T06:15:01.649Z,1.98
2023-04-20T06:16:01.642Z,2.00
2023-04-20T06:17:01.594Z,2.00
2023-04-20T06:18:01.827Z,2.02
2023-04-20T06:19:01.592Z,2.02
2023-04-20T06:20:01.561Z,2.05
2023-04-20T06:21:01.564Z,2.05
2023-04-20T06:22:01.580Z,2.07
2023-04-20T06:23:01.541Z,2.12
2023-04-20T06:24:01.518Z,2.12
2023-04-20T06:25:01.507Z,2.14
2023-04-20T06:26:01.488Z,2.12
2023-04-20T06:27:01.475Z,2.14
2023-04-20T06:28:01.460Z,2.15
2023-04-20T06:29:01.469Z,2.19
2023-04-20T06:30:01.454Z,2.22
2023-04-20T06:31:01.577Z,2.22
2023-04-20T06:32:01.447Z,2.23
2023-04-20T06:33:01.564Z,2.25
2023-04-20T06:34:01.434Z,2.27
2023-04-20T06:35:01.386Z,2.32
2023-04-20T06:36:01.399Z,2.32
2023-04-20T06:37:01.364Z,2.33
2023-04-20T06:38:01.368Z,2.38
2023-04-20T06:39:01.333Z,2.41
2023-04-20T06:40:01.329Z,2.45
2023-04-20T06:41:01.335Z,2.51
2023-04-20T06:42:01.318Z,2.55
2023-04-20T06:43:01.314Z,2.58
2023-04-20T06:44:01.292Z,2.59
2023-04-20T06:45:01.280Z,2.62
2023-04-20T06:46:01.273Z,2.69
2023-04-20T06:47:01.323Z,2.77
2023-04-20T06:48:01.297Z,2.80
2023-04-20T06:49:01.232Z,2.81
2023-04-20T06:50:01.227Z,2.86
2023-04-20T06:51:01.213Z,2.92
2023-04-20T06:52:01.205Z,2.98
2023-04-20T06:53:01.194Z,3.04
2023-04-20T06:54:01.185Z,3.10
2023-04-20T06:55:01.200Z,3.17
2023-04-20T06:56:01.168Z,3.22
2023-04-20T06:57:01.133Z,3.31
2023-04-20T06:58:01.139Z,3.37
2023-04-20T06:59:01.114Z,3.42
2023-04-20T07:00:01.122Z,3.50
2023-04-20T07:01:01.087Z,3.56
2023-04-20T07:02:01.280Z,3.57
2023-04-20T07:03:01.222Z,3.59
2023-04-20T07:04:01.170Z,3.63
2023-04-20T07:05:01.185Z,3.67
2023-04-20T07:06:01.027Z,3.74
2023-04-20T07:07:01.073Z,3.78
2023-04-20T07:08:01.021Z,3.88
2023-04-20T07:09:01.026Z,3.99
2023-04-20T07:10:01.011Z,4.07
2023-04-20T07:11:00.981Z,4.14
2023-04-20T07:12:01.001Z,4.21
2023-04-20T07:13:01.020Z,4.24
2023-04-20T07:14:00.959Z,4.29
2023-04-20T07:15:00.977Z,4.35
2023-04-20T07:16:00.985Z,4.38
2023-04-20T07:17:00.944Z,4.38
2023-04-20T07:18:00.964Z,4.39
2023-04-20T07:19:00.892Z,4.39
2023-04-20T07:20:00.884Z,4.43
2023-04-20T07:21:00.898Z,4.47
2023-04-20T07:22:00.869Z,4.50
2023-04-20T07:23:00.868Z,4.54
2023-04-20T07:24:00.882Z,4.53
2023-04-20T07:25:00.861Z,4.54
2023-04-20T07:26:00.817Z,4.59
2023-04-20T07:27:00.899Z,4.61
2023-04-20T07:28:00.855Z,4.64
2023-04-20T07:29:00.803Z,4.65
2023-04-20T07:30:00.785Z,4.71
2023-04-20T07:31:00.772Z,4.71
2023-04-20T07:32:00.783Z,4.71
2023-04-20T07:33:00.818Z,4.74
2023-04-20T07:34:00.728Z,4.77
2023-04-20T07:35:00.773Z,4.80
2023-04-20T07:36:00.702Z,4.86
2023-04-20T07:37:00.723Z,4.86
2023-04-20T07:38:00.723Z,4.87
2023-04-20T07:39:00.682Z,4.88
2023-04-20T07:40:00.657Z,4.88
2023-04-20T07:41:00.661Z,4.91
2023-04-20T07:42:00.664Z,4.91
2023-04-20T07:43:00.658Z,4.96
2023-04-20T07:44:00.772Z,4.96
2023-04-20T07:45:00.625Z,4.96
2023-04-20T07:46:00.673Z,4.99
2023-04-20T07:47:00.960Z,5.01
2023-04-20T07:48:00.658Z,5.01
2023-04-20T07:49:00.583Z,5.01
2023-04-20T07:50:00.553Z,4.99
2023-04-20T07:51:00.555Z,4.99
2023-04-20T07:52:12.987Z,5.01
2023-04-20T07:53:00.535Z,5.01
2023-04-20T07:54:00.510Z,5.02
2023-04-20T07:55:00.521Z,5.04
2023-04-20T07:56:00.537Z,5.05
2023-04-20T07:57:00.492Z,5.06
2023-04-20T07:58:00.498Z,5.08
2023-04-20T07:59:00.604Z,5.09
2023-04-20T08:00:00.524Z,5.12
2023-04-20T08:01:00.461Z,5.15
2023-04-20T08:02:00.552Z,5.14
2023-04-20T08:03:00.568Z,5.15
2023-04-20T08:04:00.621Z,5.15
2023-04-20T08:05:00.685Z,5.15
2023-04-20T08:06:00.489Z,5.19
2023-04-20T08:07:00.368Z,5.23
2023-04-20T08:08:00.366Z,5.27
2023-04-20T08:09:00.369Z,5.29
2023-04-20T08:10:00.365Z,5.32
2023-04-20T08:11:00.396Z,5.32
2023-04-20T08:12:00.354Z,5.33
2023-04-20T08:13:00.338Z,5.37
2023-04-20T08:14:00.429Z,5.38
2023-04-20T08:15:00.337Z,5.35
2023-04-20T08:16:00.592Z,5.33
2023-04-20T08:17:00.287Z,5.35
2023-04-20T08:18:00.390Z,5.35
2023-04-20T08:19:00.246Z,5.33
2023-04-20T08:20:00.233Z,5.32
2023-04-20T08:21:00.232Z,5.32
2023-04-20T08:22:01.375Z,5.32
2023-04-20T08:23:00.203Z,5.35
2023-04-20T08:24:00.429Z,5.35
2023-04-20T08:25:00.188Z,5.33
2023-04-20T08:26:00.199Z,5.37
2023-04-20T08:27:00.163Z,5.40
2023-04-20T08:28:00.313Z,5.45
2023-04-20T08:29:00.162Z,5.47
2023-04-20T08:30:00.125Z,5.45
2023-04-20T08:31:00.192Z,5.47
2023-04-20T08:32:00.188Z,5.48
2023-04-20T08:33:00.168Z,5.49
2023-04-20T08:34:00.098Z,5.49
2023-04-20T08:35:00.088Z,5.49
2023-04-20T08:36:00.073Z,5.49
2023-04-20T08:37:00.070Z,5.51
2023-04-20T08:38:00.081Z,5.52
2023-04-20T08:39:00.036Z,5.51
2023-04-20T08:40:00.062Z,5.55
2023-04-20T08:41:00.016Z,5.55
2023-04-20T08:42:00.008Z,5.55
2023-04-20T08:42:59.986Z,5.58
2023-04-20T08:43:59.965Z,5.59
2023-04-20T08:44:59.964Z,5.59
2023-04-20T08:45:59.975Z,5.58
2023-04-20T08:47:00.077Z,5.59
2023-04-20T08:47:59.940Z,5.59
2023-04-20T08:48:59.941Z,5.58
2023-04-20T08:49:59.899Z,5.58
2023-04-20T08:50:59.887Z,5.58
2023-04-20T08:51:59.924Z,5.56
2023-04-20T08:52:59.868Z,5.59
2023-04-20T08:53:59.858Z,5.58
2023-04-20T08:54:59.844Z,5.59
2023-04-20T08:55:59.886Z,5.58
2023-04-20T08:56:59.819Z,5.59
2023-04-20T08:57:59.825Z,5.58
2023-04-20T08:58:59.810Z,5.58
2023-04-20T08:59:59.779Z,5.62
2023-04-20T09:00:59.773Z,5.60
2023-04-20T09:01:59.915Z,5.56
2023-04-20T09:02:59.892Z,5.62
2023-04-20T09:03:59.959Z,5.84
2023-04-20T09:04:59.769Z,5.95
2023-04-20T09:05:59.727Z,5.99
2023-04-20T09:06:59.724Z,5.99
2023-04-20T09:07:59.825Z,5.99
2023-04-20T09:08:59.700Z,5.99
2023-04-20T09:09:59.817Z,6.01
2023-04-20T09:10:59.704Z,5.92
2023-04-20T09:11:59.645Z,5.84
2023-04-20T09:12:59.691Z,5.77
2023-04-20T09:13:59.664Z,5.69
2023-04-20T09:14:59.622Z,5.65
2023-04-20T09:15:59.624Z,5.65
2023-04-20T09:16:59.615Z,5.63
2023-04-20T09:17:59.606Z,5.60
2023-04-20T09:18:59.606Z,5.60
2023-04-20T09:19:59.576Z,5.58
2023-04-20T09:20:59.581Z,5.62
2023-04-20T09:21:59.553Z,5.62
2023-04-20T09:22:59.553Z,5.62
2023-04-20T09:23:59.521Z,5.59
2023-04-20T09:24:59.521Z,5.60
2023-04-20T09:25:59.539Z,5.63
2023-04-20T09:26:59.506Z,5.63
2023-04-20T09:27:59.508Z,5.65
2023-04-20T09:28:59.609Z,5.66
2023-04-20T09:29:59.471Z,5.73
2023-04-20T09:30:59.453Z,5.74
2023-04-20T09:31:59.452Z,5.74
2023-04-20T09:32:59.452Z,5.73
2023-04-20T09:33:59.415Z,5.73
2023-04-20T09:34:59.427Z,5.69
2023-04-20T09:35:59.383Z,5.69
2023-04-20T09:36:59.383Z,5.69
2023-04-20T09:37:59.392Z,5.67
2023-04-20T09:38:59.356Z,5.67
2023-04-20T09:39:59.349Z,5.69
2023-04-20T09:40:59.352Z,5.67
2023-04-20T09:41:59.333Z,5.69
2023-04-20T09:42:59.337Z,5.65
2023-04-20T09:43:59.299Z,5.66
2023-04-20T09:44:59.300Z,5.69
2023-04-20T09:45:59.401Z,5.70
2023-04-20T09:46:59.299Z,5.70
2023-04-20T09:47:59.285Z,5.73
2023-04-20T09:48:59.282Z,5.69
2023-04-20T09:50:04.448Z,5.69
2023-04-20T09:50:59.237Z,5.69
2023-04-20T09:51:59.206Z,5.74
2023-04-20T09:52:59.202Z,5.77
2023-04-20T09:53:59.181Z,5.81
2023-04-20T09:54:59.204Z,5.81
2023-04-20T09:55:59.187Z,5.80
2023-04-20T09:56:59.148Z,5.80
2023-04-20T09:57:59.169Z,5.84
2023-04-20T09:58:59.142Z,5.87
2023-04-20T09:59:59.138Z,5.90
2023-04-20T10:00:59.129Z,5.92
2023-04-20T10:01:59.245Z,5.96
2023-04-20T10:02:59.209Z,5.99
2023-04-20T10:03:59.428Z,6.02
2023-04-20T10:04:59.068Z,6.06
2023-04-20T10:05:59.075Z,6.14
2023-04-20T10:06:59.073Z,6.16
2023-04-20T10:07:59.036Z,6.19
2023-04-20T10:08:59.039Z,6.20
2023-04-20T10:09:59.027Z,6.25
2023-04-20T10:10:59.002Z,6.32
2023-04-20T10:11:59.657Z,6.36
2023-04-20T10:12:58.972Z,6.35
2023-04-20T10:13:58.976Z,6.38
2023-04-20T10:14:58.968Z,6.36
2023-04-20T10:15:59.023Z,6.36
2023-04-20T10:16:59.041Z,6.30
2023-04-20T10:17:59.078Z,6.25
2023-04-20T10:18:58.947Z,6.21
2023-04-20T10:19:58.921Z,6.24
2023-04-20T10:20:58.899Z,6.27
2023-04-20T10:21:58.906Z,6.28
2023-04-20T10:22:58.869Z,6.27
2023-04-20T10:23:58.901Z,6.32
2023-04-20T10:24:58.863Z,6.33
2023-04-20T10:25:58.844Z,6.40
2023-04-20T10:26:58.830Z,6.46
2023-04-20T10:27:58.833Z,6.54
2023-04-20T10:28:58.811Z,6.57
2023-04-20T10:29:58.981Z,6.60
2023-04-20T10:30:58.870Z,6.60
2023-04-20T10:31:58.773Z,6.61
2023-04-20T10:32:58.850Z,6.58
2023-04-20T10:33:58.778Z,6.55
2023-04-20T10:34:58.789Z,6.57
2023-04-20T10:35:58.728Z,6.58
2023-04-20T10:36:58.704Z,6.61
2023-04-20T10:37:58.736Z,6.64
2023-04-20T10:38:58.704Z,6.64
2023-04-20T10:39:58.708Z,6.61
2023-04-20T10:40:58.677Z,6.61
2023-04-20T10:41:58.677Z,6.63
2023-04-20T10:42:58.642Z,6.63
2023-04-20T10:43:58.676Z,6.61
2023-04-20T10:44:58.646Z,6.60
2023-04-20T10:45:58.676Z,6.58
2023-04-20T10:46:58.618Z,6.57
2023-04-20T10:47:58.657Z,6.54
2023-04-20T10:48:58.632Z,6.54
2023-04-20T10:49:58.575Z,6.54
2023-04-20T10:50:58.557Z,6.54
2023-04-20T10:51:58.558Z,6.54
2023-04-20T10:52:58.684Z,6.55
2023-04-20T10:53:58.532Z,6.55
2023-04-20T10:54:58.566Z,6.58
2023-04-20T10:55:58.539Z,6.55
2023-04-20T10:56:58.492Z,6.57
2023-04-20T10:57:58.497Z,6.55
2023-04-20T10:58:59.461Z,6.58
2023-04-20T10:59:58.492Z,6.57
2023-04-20T11:00:58.501Z,6.57
2023-04-20T11:01:58.577Z,6.60
2023-04-20T11:02:58.587Z,6.57
2023-04-20T11:03:58.452Z,6.58
2023-04-20T11:04:58.459Z,6.58
2023-04-20T11:05:58.422Z,6.58
2023-04-20T11:06:58.387Z,6.58
2023-04-20T11:07:58.398Z,6.61
2023-04-20T11:08:58.359Z,6.60
2023-04-20T11:09:58.376Z,6.58
2023-04-20T11:10:58.353Z,6.60
2023-04-20T11:11:58.365Z,6.61
2023-04-20T11:12:58.325Z,6.60
2023-04-20T11:13:58.318Z,6.58
2023-04-20T11:14:58.308Z,6.58
2023-04-20T11:15:58.352Z,6.57
2023-04-20T11:16:58.376Z,6.61
2023-04-20T11:17:58.326Z,6.61
2023-04-20T11:18:58.246Z,6.60
2023-04-20T11:19:58.252Z,6.57
2023-04-20T11:20:58.218Z,6.55
2023-04-20T11:21:58.225Z,6.55
2023-04-20T11:22:58.204Z,6.57
2023-04-20T11:23:58.205Z,6.60
2023-04-20T11:24:58.344Z,6.64
2023-04-20T11:25:58.202Z,6.68
2023-04-20T11:26:58.226Z,6.69
2023-04-20T11:27:58.186Z,6.71
2023-04-20T11:28:58.143Z,6.72
2023-04-20T11:29:58.143Z,6.73
2023-04-20T11:30:58.141Z,6.75
2023-04-20T11:31:58.311Z,6.73
2023-04-20T11:32:58.251Z,6.72
2023-04-20T11:33:58.090Z,6.75
2023-04-20T11:35:05.957Z,6.71
2023-04-20T11:35:58.092Z,6.69
2023-04-20T11:36:58.066Z,6.68
2023-04-20T11:37:58.046Z,6.68
2023-04-20T11:38:58.056Z,6.69
2023-04-20T11:39:58.011Z,6.69
2023-04-20T11:40:58.017Z,6.75
2023-04-20T11:41:57.998Z,6.75
2023-04-20T11:42:57.989Z,6.72
2023-04-20T11:43:57.963Z,6.73
2023-04-20T11:44:58.185Z,6.73
2023-04-20T11:45:58.015Z,6.78
2023-04-20T11:46:57.935Z,6.86
2023-04-20T11:47:57.996Z,6.91
2023-04-20T11:48:57.923Z,7.00
2023-04-20T11:49:57.928Z,7.05
2023-04-20T11:50:57.905Z,7.05
2023-04-20T11:51:57.897Z,7.05
2023-04-20T11:52:57.877Z,7.08
2023-04-20T11:53:57.878Z,7.05
2023-04-20T11:54:57.857Z,7.05
2023-04-20T11:55:57.840Z,6.99
2023-04-20T11:56:57.843Z,6.96
2023-04-20T11:57:57.824Z,7.01
2023-04-20T11:58:57.816Z,7.04
2023-04-20T11:59:57.820Z,7.07
2023-04-20T12:00:57.789Z,7.04
2023-04-20T12:01:57.828Z,7.05
2023-04-20T12:02:57.872Z,7.01
2023-04-20T12:03:58.007Z,7.07
2023-04-20T12:04:57.897Z,7.11
2023-04-20T12:05:57.763Z,7.12
2023-04-20T12:06:57.706Z,7.14
2023-04-20T12:07:57.719Z,7.16
2023-04-20T12:08:57.745Z,7.26
2023-04-20T12:09:57.686Z,7.29
2023-04-20T12:10:58.654Z,7.32
2023-04-20T12:11:57.662Z,7.34
2023-04-20T12:12:57.658Z,7.41
2023-04-20T12:13:57.654Z,7.41
2023-04-20T12:14:57.630Z,7.32
2023-04-20T12:15:57.649Z,7.18
2023-04-20T12:16:58.664Z,7.14
2023-04-20T12:17:57.629Z,7.09
2023-04-20T12:18:57.585Z,7.05
2023-04-20T12:19:57.617Z,6.96
2023-04-20T12:20:57.572Z,6.93
2023-04-20T12:21:57.574Z,6.96
2023-04-20T12:22:58.948Z,7.00
2023-04-20T12:23:57.540Z,7.05
2023-04-20T12:24:57.528Z,7.11
2023-04-20T12:25:57.517Z,7.11
2023-04-20T12:26:57.524Z,7.07
2023-04-20T12:27:57.524Z,7.07
2023-04-20T12:28:57.497Z,7.08
2023-04-20T12:29:57.452Z,7.12
2023-04-20T12:30:57.489Z,7.18
2023-04-20T12:31:57.542Z,7.24
2023-04-20T12:32:57.482Z,7.29
2023-04-20T12:33:57.412Z,7.34
2023-04-20T12:34:57.428Z,7.27
2023-04-20T12:35:57.420Z,7.26
2023-04-20T12:36:57.406Z,7.24
2023-04-20T12:37:57.409Z,7.19
2023-04-20T12:38:57.392Z,7.21
2023-04-20T12:39:57.372Z,7.24
2023-04-20T12:40:57.333Z,7.27
2023-04-20T12:41:57.337Z,7.30
2023-04-20T12:42:57.329Z,7.27
2023-04-20T12:43:57.314Z,7.29
2023-04-20T12:44:57.316Z,7.30
2023-04-20T12:45:57.318Z,7.23
2023-04-20T12:46:57.350Z,7.19
2023-04-20T12:47:58.484Z,7.16
2023-04-20T12:48:57.264Z,7.16
2023-04-20T12:49:57.232Z,7.18
2023-04-20T12:50:57.269Z,7.18
2023-04-20T12:51:57.225Z,7.18
2023-04-20T12:52:57.223Z,7.18
2023-04-20T12:53:57.221Z,7.19
2023-04-20T12:54:57.192Z,7.16
2023-04-20T12:56:01.045Z,7.15
2023-04-20T12:56:57.155Z,7.11
2023-04-20T12:57:57.163Z,7.08
2023-04-20T12:58:57.152Z,7.08
2023-04-20T12:59:57.128Z,7.09
2023-04-20T13:00:57.169Z,7.09
2023-04-20T13:01:57.142Z,7.09
2023-04-20T13:02:57.311Z,7.07
2023-04-20T13:03:57.339Z,7.08
2023-04-20T13:04:57.066Z,7.04
2023-04-20T13:05:57.071Z,7.01
2023-04-20T13:06:57.037Z,7.01
2023-04-20T13:07:57.060Z,7.07
2023-04-20T13:08:57.064Z,7.11
2023-04-20T13:09:57.016Z,7.14
2023-04-20T13:10:57.019Z,7.15
2023-04-20T13:11:57.017Z,7.15
2023-04-20T13:12:57.001Z,7.16
2023-04-20T13:13:56.997Z,7.21
2023-04-20T13:14:56.952Z,7.23
2023-04-20T13:15:57.004Z,7.29
2023-04-20T13:16:57.018Z,7.32
2023-04-20T13:17:56.980Z,7.33
2023-04-20T13:18:56.994Z,7.34
2023-04-20T13:19:56.903Z,7.32
2023-04-20T13:20:56.923Z,7.27
2023-04-20T13:21:56.901Z,7.26
2023-04-20T13:22:58.152Z,7.21
2023-04-20T13:23:57.118Z,7.21
2023-04-20T13:24:56.863Z,7.19
2023-04-20T13:25:56.866Z,7.18
2023-04-20T13:26:56.880Z,7.18
2023-04-20T13:27:56.833Z,7.16
2023-04-20T13:28:56.799Z,7.12
2023-04-20T13:29:56.848Z,7.05
2023-04-20T13:30:56.773Z,7.07
2023-04-20T13:31:56.809Z,7.07
2023-04-20T13:32:56.825Z,7.11
2023-04-20T13:33:56.763Z,7.14
2023-04-20T13:34:56.753Z,7.15
2023-04-20T13:35:56.727Z,7.14
2023-04-20T13:36:56.745Z,7.14
2023-04-20T13:37:56.737Z,7.16
2023-04-20T13:38:56.703Z,7.18
2023-04-20T13:39:56.700Z,7.15
2023-04-20T13:40:56.700Z,7.16
2023-04-20T13:41:56.660Z,7.18
2023-04-20T13:42:56.669Z,7.21
2023-04-20T13:43:56.648Z,7.19
2023-04-20T13:44:56.645Z,7.23
2023-04-20T13:45:56.651Z,7.21
2023-04-20T13:46:56.628Z,7.18
2023-04-20T13:47:56.626Z,7.18
2023-04-20T13:48:56.616Z,7.16
2023-04-20T13:49:56.606Z,7.15
2023-04-20T13:50:56.567Z,7.12
2023-04-20T13:51:56.577Z,7.09
2023-04-20T13:52:56.564Z,7.05
2023-04-20T13:53:56.547Z,6.96
2023-04-20T13:54:56.528Z,6.86
2023-04-20T13:55:56.525Z,6.79
2023-04-20T13:56:56.501Z,6.78
2023-04-20T13:57:56.497Z,6.76
2023-04-20T13:58:56.486Z,6.73
2023-04-20T13:59:56.512Z,6.75
2023-04-20T14:00:56.522Z,6.75
2023-04-20T14:01:56.458Z,6.78
2023-04-20T14:02:56.491Z,6.81
2023-04-20T14:03:56.514Z,6.82
2023-04-20T14:04:56.484Z,6.81
2023-04-20T14:05:56.414Z,6.81
2023-04-20T14:06:56.405Z,6.83
2023-04-20T14:07:56.404Z,6.82
2023-04-20T14:08:56.384Z,6.86
2023-04-20T14:09:56.623Z,6.83
2023-04-20T14:10:56.364Z,6.86
2023-04-20T14:11:57.160Z,6.86
2023-04-20T14:12:56.324Z,6.89
2023-04-20T14:13:56.318Z,6.90
2023-04-20T14:14:56.309Z,6.96
2023-04-20T14:15:56.333Z,6.96
2023-04-20T14:16:56.294Z,6.94
2023-04-20T14:17:56.315Z,6.96
2023-04-20T14:18:56.259Z,6.97
2023-04-20T14:19:56.243Z,7.00
2023-04-20T14:20:56.238Z,7.01
2023-04-20T14:21:56.229Z,7.00
2023-04-20T14:22:56.215Z,6.97
2023-04-20T14:23:56.223Z,6.99
2023-04-20T14:24:56.181Z,6.96
2023-04-20T14:25:56.187Z,6.91
2023-04-20T14:26:56.185Z,6.87
2023-04-20T14:27:56.175Z,6.89
2023-04-20T14:28:56.169Z,6.90
2023-04-20T14:29:56.171Z,6.89
2023-04-20T14:30:56.170Z,6.82
2023-04-20T14:31:56.201Z,6.81
2023-04-20T14:32:56.215Z,6.78
2023-04-20T14:33:56.110Z,6.78
2023-04-20T14:34:56.146Z,6.76
2023-04-20T14:35:56.227Z,6.75
2023-04-20T14:36:56.093Z,6.71
2023-04-20T14:37:56.032Z,6.71
2023-04-20T14:38:56.047Z,6.69
2023-04-20T14:39:56.069Z,6.71
2023-04-20T14:40:56.034Z,6.75
2023-04-20T14:41:55.992Z,6.76
2023-04-20T14:42:56.005Z,6.76
2023-04-20T14:43:55.995Z,6.76
2023-04-20T14:44:55.980Z,6.73
2023-04-20T14:45:55.972Z,6.73
2023-04-20T14:46:56.043Z,6.71
2023-04-20T14:47:55.992Z,6.71
2023-04-20T14:48:55.939Z,6.71
2023-04-20T14:49:55.918Z,6.73
2023-04-20T14:50:55.940Z,6.72
2023-04-20T14:51:55.902Z,6.72
2023-04-20T14:52:55.885Z,6.69
2023-04-20T14:53:55.875Z,6.72
2023-04-20T14:54:55.864Z,6.73
2023-04-20T14:55:55.839Z,6.73
2023-04-20T14:56:55.864Z,6.78
2023-04-20T14:57:55.820Z,6.78
2023-04-20T14:58:55.845Z,6.78
2023-04-20T14:59:55.822Z,6.76
2023-04-20T15:00:55.785Z,6.76
2023-04-20T15:02:02.738Z,6.75
2023-04-20T15:02:55.951Z,6.73
2023-04-20T15:03:56.071Z,6.73
2023-04-20T15:04:55.995Z,6.75
2023-04-20T15:05:55.926Z,6.73
2023-04-20T15:06:55.737Z,6.72
2023-04-20T15:07:55.768Z,6.72
2023-04-20T15:08:55.717Z,6.73
2023-04-20T15:09:55.703Z,6.76
2023-04-20T15:10:55.734Z,6.75
2023-04-20T15:11:55.677Z,6.76
2023-04-20T15:12:55.663Z,6.76
2023-04-20T15:13:55.647Z,6.78
2023-04-20T15:14:55.676Z,6.75
2023-04-20T15:15:55.661Z,6.73
2023-04-20T15:16:55.663Z,6.73
2023-04-20T15:17:55.677Z,6.72
2023-04-20T15:18:55.600Z,6.71
2023-04-20T15:19:55.576Z,6.69
2023-04-20T15:20:55.579Z,6.64
2023-04-20T15:21:55.563Z,6.64
2023-04-20T15:22:55.576Z,6.63
2023-04-20T15:23:55.532Z,6.63
2023-04-20T15:24:55.561Z,6.64
2023-04-20T15:25:55.505Z,6.64
2023-04-20T15:26:55.520Z,6.63
2023-04-20T15:27:55.501Z,6.63
2023-04-20T15:28:55.503Z,6.63
2023-04-20T15:29:55.467Z,6.58
2023-04-20T15:30:55.544Z,6.60
2023-04-20T15:31:55.528Z,6.58
2023-04-20T15:32:55.569Z,6.61
2023-04-20T15:33:55.428Z,6.61
2023-04-20T15:34:55.476Z,6.61
2023-04-20T15:35:55.412Z,6.61
2023-04-20T15:36:55.409Z,6.64
2023-04-20T15:37:55.404Z,6.69
2023-04-20T15:38:57.572Z,6.69
2023-04-20T15:39:55.378Z,6.68
2023-04-20T15:40:55.380Z,6.69
2023-04-20T15:41:55.328Z,6.69
2023-04-20T15:42:55.418Z,6.71
2023-04-20T15:43:55.325Z,6.71
2023-04-20T15:44:55.323Z,6.71
2023-04-20T15:45:55.366Z,6.72
2023-04-20T15:46:55.347Z,6.75
2023-04-20T15:47:55.309Z,6.72
2023-04-20T15:48:55.252Z,6.73
2023-04-20T15:49:55.266Z,6.73
2023-04-20T15:50:55.245Z,6.72
2023-04-20T15:51:55.222Z,6.73
2023-04-20T15:52:55.231Z,6.72
2023-04-20T15:53:55.265Z,6.72
2023-04-20T15:54:55.198Z,6.73
2023-04-20T15:55:55.207Z,6.72
2023-04-20T15:56:55.234Z,6.71
2023-04-20T15:57:55.165Z,6.71
2023-04-20T15:58:55.153Z,6.72
2023-04-20T15:59:55.140Z,6.69
2023-04-20T16:00:55.184Z,6.69
2023-04-20T16:01:55.266Z,6.68
2023-04-20T16:02:55.280Z,6.68
2023-04-20T16:03:55.341Z,6.68
2023-04-20T16:04:55.263Z,6.65
2023-04-20T16:05:55.109Z,6.65
2023-04-20T16:06:55.086Z,6.69
2023-04-20T16:07:55.084Z,6.69
2023-04-20T16:08:55.051Z,6.68
2023-04-20T16:09:55.036Z,6.69
2023-04-20T16:10:55.052Z,6.69
2023-04-20T16:11:55.017Z,6.71
2023-04-20T16:12:55.002Z,6.72
2023-04-20T16:13:54.970Z,6.72
2023-04-20T16:14:54.972Z,6.72
2023-04-20T16:15:55.001Z,6.72
2023-04-20T16:16:54.959Z,6.72
2023-04-20T16:17:55.020Z,6.71
2023-04-20T16:18:54.929Z,6.71
2023-04-20T16:19:54.911Z,6.73
2023-04-20T16:20:54.901Z,6.73
2023-04-20T16:21:54.908Z,6.72
2023-04-20T16:22:54.904Z,6.71
2023-04-20T16:23:54.870Z,6.69
2023-04-20T16:24:54.873Z,6.71
2023-04-20T16:25:54.852Z,6.69
2023-04-20T16:26:54.851Z,6.68
2023-04-20T16:27:54.856Z,6.69
2023-04-20T16:28:54.830Z,6.72
2023-04-20T16:29:54.832Z,6.75
2023-04-20T16:30:54.918Z,6.73
2023-04-20T16:31:54.879Z,6.72
2023-04-20T16:32:54.883Z,6.75
2023-04-20T16:33:54.764Z,6.76
2023-04-20T16:34:54.770Z,6.76
2023-04-20T16:35:54.756Z,6.76
2023-04-20T16:36:54.742Z,6.76
2023-04-20T16:37:54.734Z,6.78
2023-04-20T16:38:54.776Z,6.79
2023-04-20T16:39:54.714Z,6.79
2023-04-20T16:40:54.707Z,6.79
2023-04-20T16:41:54.727Z,6.79
2023-04-20T16:42:54.703Z,6.81
2023-04-20T16:43:54.656Z,6.81
2023-04-20T16:44:54.653Z,6.82
2023-04-20T16:45:54.672Z,6.83
2023-04-20T16:46:54.664Z,6.83
2023-04-20T16:47:54.709Z,6.86
2023-04-20T16:48:54.641Z,6.87
2023-04-20T16:49:54.594Z,6.83
2023-04-20T16:50:54.590Z,6.81
2023-04-20T16:51:54.606Z,6.79
2023-04-20T16:52:54.594Z,6.78
2023-04-20T16:53:54.550Z,6.78
2023-04-20T16:54:54.560Z,6.78
2023-04-20T16:55:54.526Z,6.79
2023-04-20T16:56:54.504Z,6.81
2023-04-20T16:57:54.532Z,6.83
2023-04-20T16:58:54.540Z,6.83
2023-04-20T16:59:54.481Z,6.82
2023-04-20T17:00:54.526Z,6.83
2023-04-20T17:01:54.493Z,6.89
2023-04-20T17:02:54.624Z,6.90
2023-04-20T17:03:54.636Z,6.91
2023-04-20T17:04:54.455Z,6.94
2023-04-20T17:05:54.422Z,6.96
2023-04-20T17:06:54.491Z,6.94
2023-04-20T17:07:54.406Z,6.97
2023-04-20T17:08:54.461Z,6.96
2023-04-20T17:09:54.364Z,6.97
2023-04-20T17:10:54.431Z,6.94
2023-04-20T17:11:54.338Z,6.94
2023-04-20T17:12:54.327Z,6.94
2023-04-20T17:13:54.373Z,6.97
2023-04-20T17:14:54.328Z,6.99
2023-04-20T17:15:54.306Z,6.96
2023-04-20T17:16:54.470Z,6.96
2023-04-20T17:17:54.359Z,6.94
2023-04-20T17:18:54.264Z,6.93
2023-04-20T17:19:54.244Z,6.90
2023-04-20T17:20:54.266Z,6.90
2023-04-20T17:21:54.231Z,6.90
2023-04-20T17:22:54.228Z,6.91
2023-04-20T17:23:54.240Z,6.93
2023-04-20T17:24:54.233Z,6.97
2023-04-20T17:25:54.199Z,6.96
2023-04-20T17:26:54.184Z,6.97
2023-04-20T17:27:54.190Z,6.97
2023-04-20T17:28:54.187Z,6.97
2023-04-20T17:29:54.174Z,6.99
2023-04-20T17:30:54.174Z,6.97
2023-04-20T17:31:54.186Z,7.00
2023-04-20T17:32:54.137Z,7.00
2023-04-20T17:33:54.103Z,7.04
2023-04-20T17:34:54.159Z,7.05
2023-04-20T17:35:54.086Z,7.05
2023-04-20T17:36:54.074Z,7.05
2023-04-20T17:37:54.091Z,7.01
2023-04-20T17:38:54.070Z,7.01
2023-04-20T17:39:54.053Z,7.00
2023-04-20T17:40:54.044Z,7.04
2023-04-20T17:41:54.038Z,7.00
2023-04-20T17:42:54.036Z,7.00
2023-04-20T17:43:54.022Z,7.01
2023-04-20T17:44:54.015Z,7.00
2023-04-20T17:45:54.011Z,7.00
2023-04-20T17:46:53.971Z,6.99
2023-04-20T17:47:54.060Z,6.97
2023-04-20T17:48:53.950Z,6.99
2023-04-20T17:49:53.964Z,6.96
2023-04-20T17:50:53.910Z,6.97
2023-04-20T17:51:53.904Z,6.96
2023-04-20T17:52:53.912Z,6.99
2023-04-20T17:53:53.879Z,7.16
2023-04-20T17:54:53.886Z,7.26
2023-04-20T17:55:53.856Z,7.32
2023-04-20T17:56:53.854Z,7.36
2023-04-20T17:57:53.847Z,7.37
2023-04-20T17:58:53.832Z,7.37
2023-04-20T17:59:53.869Z,7.36
2023-04-20T18:00:53.804Z,7.36
2023-04-20T18:01:53.944Z,7.33
2023-04-20T18:02:54.002Z,7.30
2023-04-20T18:03:53.907Z,7.32
2023-04-20T18:04:53.968Z,7.32
2023-04-20T18:05:54.392Z,7.32
2023-04-20T18:06:53.754Z,7.29
2023-04-20T18:07:53.752Z,7.32
2023-04-20T18:08:53.731Z,7.27
2023-04-20T18:09:53.713Z,7.29
2023-04-20T18:10:53.730Z,7.26
2023-04-20T18:11:53.692Z,7.19
2023-04-20T18:12:53.693Z,7.19
2023-04-20T18:13:53.639Z,7.21
2023-04-20T18:14:53.675Z,7.16
2023-04-20T18:15:53.703Z,7.15
2023-04-20T18:16:53.633Z,7.14
2023-04-20T18:17:53.696Z,7.16
2023-04-20T18:18:53.611Z,7.16
2023-04-20T18:19:53.608Z,7.18
2023-04-20T18:20:53.602Z,7.18
2023-04-20T18:21:53.577Z,7.21
2023-04-20T18:22:53.572Z,7.19
2023-04-20T18:23:53.563Z,7.21
2023-04-20T18:24:53.521Z,7.23
2023-04-20T18:25:53.715Z,7.23
2023-04-20T18:26:53.510Z,7.21
2023-04-20T18:27:53.536Z,7.23
2023-04-20T18:28:53.498Z,7.23
2023-04-20T18:29:53.490Z,7.23
2023-04-20T18:30:53.472Z,7.21
2023-04-20T18:31:53.589Z,7.21
2023-04-20T18:32:53.473Z,7.21
2023-04-20T18:33:53.465Z,7.21
2023-04-20T18:34:53.429Z,7.16
2023-04-20T18:35:53.456Z,7.18
2023-04-20T18:36:53.390Z,7.16
2023-04-20T18:37:53.393Z,7.26
2023-04-20T18:38:53.387Z,7.29
2023-04-20T18:39:53.391Z,7.24
2023-04-20T18:40:53.354Z,7.24
2023-04-20T18:41:53.340Z,7.24